Time;durP1;ratioP1;P1;durP2;ratioP2;P2;SDS_P1;SDS_P2;PMS_P1;PMS_P2;Temp;Humidity;BMP_temperature;BMP_pressure;BME280_temperature;BME280_humidity;BME280_pressure;Samples;Min_cycle;Max_cycle;Signal;HPM_P1;HPM_P2
2022/09/05 00:01:50;;;;;;;;;3.00;2.00;;;;;25.08;41.46;101006.19;5072919;27;45295;-49
2022/09/05 00:04:22;;;;;;;;;2.25;1.75;;;;;25.08;41.36;101006.19;5077405;27;46078;-51
2022/09/05 00:07:02;;;;;;;;;2.00;2.00;;;;;25.08;41.35;101000.84;5057709;27;45264;-50
2022/09/05 00:09:36;;;;;;;;;1.00;1.00;;;;;25.06;41.07;101005.47;5058395;28;45304;-52
2022/09/05 00:12:03;;;;;;;;;2.50;2.00;;;;;24.99;41.40;101003.31;5074652;27;45479;-51
2022/09/05 00:14:38;;;;;;;;;4.25;2.25;;;;;24.96;41.62;101000.88;5059384;28;45462;-52
2022/09/05 00:17:09;;;;;;;;;3.00;3.00;;;;;24.95;41.71;101001.03;5071267;27;45670;-50
2022/09/05 00:19:40;;;;;;;;;2.00;2.00;;;;;24.94;41.67;100999.31;5073566;27;45588;-47
2022/09/05 00:22:21;;;;;;;;;2.00;2.00;;;;;24.93;41.31;101002.97;5074033;27;45274;-49
2022/09/05 00:24:46;;;;;;;;;3.75;2.00;;;;;24.91;41.53;101008.44;5077432;27;45508;-48
2022/09/05 00:27:21;;;;;;;;;3.33;2.33;;;;;24.85;41.95;101018.84;5071250;27;45373;-49
2022/09/05 00:30:02;;;;;;;;;1.00;1.00;;;;;24.80;42.00;101011.16;5073463;27;45272;-48
2022/09/05 00:32:58;;;;;;;;;1.75;1.00;;;;;24.75;42.31;101013.38;5068704;27;45300;-49
2022/09/05 00:35:41;;;;;;;;;2.00;1.00;;;;;24.72;42.39;101016.28;5076456;27;46263;-48
2022/09/05 00:38:16;;;;;;;;;2.25;2.00;;;;;24.68;42.45;101012.19;5057383;27;45702;-48
2022/09/05 00:40:45;;;;;;;;;1.50;1.50;;;;;24.65;42.21;101005.28;5076656;27;45395;-48
2022/09/05 00:43:27;;;;;;;;;1.25;1.25;;;;;24.60;42.66;100989.59;5076133;27;45421;-47
2022/09/05 00:46:00;;;;;;;;;1.50;1.50;;;;;24.59;42.24;100984.34;5077691;27;45954;-49
2022/09/05 00:48:43;;;;;;;;;2.75;2.75;;;;;24.52;42.51;100983.13;5054811;28;45730;-50
2022/09/05 00:51:25;;;;;;;;;0.75;0.50;;;;;24.45;42.73;100993.47;5078408;27;45300;-53
2022/09/05 00:54:09;;;;;;;;;2.00;1.00;;;;;24.41;42.89;101006.25;5059822;28;45591;-53
2022/09/05 00:56:41;;;;;;;;;3.50;2.00;;;;;24.41;43.02;101005.41;5056232;27;45418;-51
2022/09/05 00:59:27;;;;;;;;;1.75;1.00;;;;;24.41;42.85;101013.44;5068860;27;45357;-52
2022/09/05 01:01:52;;;;;;;;;2.00;1.00;;;;;24.42;42.96;101009.78;5076574;27;45458;-52
2022/09/05 01:05:05;;;;;;;;;4.33;2.00;;;;;24.43;42.78;101003.44;5074862;27;45138;-53
2022/09/05 01:07:43;;;;;;;;;1.75;1.50;;;;;24.43;42.97;100995.44;5041248;28;46171;-51
2022/09/05 01:10:28;;;;;;;;;2.00;2.00;;;;;24.44;43.23;100987.28;5042108;28;46828;-53
2022/09/05 01:13:20;;;;;;;;;2.75;2.50;;;;;24.45;43.59;100986.31;5074335;28;45484;-50
2022/09/05 01:16:19;;;;;;;;;4.00;2.75;;;;;24.45;44.56;100975.63;5073543;27;45474;-51
2022/09/05 01:18:59;;;;;;;;;3.50;3.25;;;;;24.43;45.56;100969.53;5075039;27;45574;-49
2022/09/05 01:21:35;;;;;;;;;3.00;1.75;;;;;24.41;46.16;100966.13;5050518;27;45621;-47
2022/09/05 01:24:19;;;;;;;;;4.00;4.00;;;;;24.39;45.54;100967.25;5057078;28;45434;-50
2022/09/05 01:27:03;;;;;;;;;3.00;3.00;;;;;24.37;46.58;100975.38;5057148;28;45794;-48
2022/09/05 01:29:53;;;;;;;;;4.00;2.00;;;;;24.33;46.20;100983.78;5075648;27;46162;-50
2022/09/05 01:32:39;;;;;;;;;5.00;2.25;;;;;24.31;46.05;101034.75;5065232;27;47459;-50
2022/09/05 01:35:26;;;;;;;;;2.00;2.00;;;;;24.28;46.00;101048.34;5071170;27;45465;-48
2022/09/05 01:37:52;;;;;;;;;4.75;3.25;;;;;24.24;46.50;101026.34;5063913;27;45449;-47
2022/09/05 01:40:20;;;;;;;;;4.00;4.00;;;;;24.22;47.66;101030.97;5073748;27;45465;-48
2022/09/05 01:43:13;;;;;;;;;6.25;4.00;;;;;24.10;48.16;101041.78;5065770;27;45548;-47
2022/09/05 01:46:19;;;;;;;;;7.75;3.50;;;;;23.75;52.29;100995.47;5057666;27;45501;-47
2022/09/05 01:49:03;;;;;;;;;5.00;4.00;;;;;23.36;53.20;100951.34;5067385;27;45455;-47
2022/09/05 01:51:51;;;;;;;;;3.00;3.00;;;;;23.03;53.63;100944.91;5059358;28;45316;-47
2022/09/05 01:54:38;;;;;;;;;2.50;2.50;;;;;22.78;54.61;100972.63;5069591;27;45841;-47
2022/09/05 01:57:34;;;;;;;;;4.00;3.00;;;;;22.61;55.90;100948.06;5074752;27;45237;-50
2022/09/05 02:00:12;;;;;;;;;2.25;2.25;;;;;22.53;57.33;100953.94;5067492;27;45530;-50
2022/09/05 02:03:07;;;;;;;;;3.75;3.00;;;;;22.48;56.74;100947.25;5057444;28;45933;-51
2022/09/05 02:06:01;;;;;;;;;5.00;4.00;;;;;22.43;58.10;100941.41;5051883;27;45783;-50
2022/09/05 02:08:57;;;;;;;;;4.00;3.75;;;;;22.40;57.97;100987.81;5052591;27;45352;-51
2022/09/05 02:11:50;;;;;;;;;3.00;3.00;;;;;22.35;56.60;100980.16;5057377;28;45525;-50
2022/09/05 02:14:30;;;;;;;;;3.50;3.50;;;;;22.33;57.95;100974.06;5057810;27;46202;-52
2022/09/05 02:17:18;;;;;;;;;3.50;3.50;;;;;22.33;57.07;100967.91;5047346;28;46677;-53
2022/09/05 02:19:56;;;;;;;;;5.00;4.00;;;;;22.30;56.08;100960.13;5053553;28;45467;-49
2022/09/05 02:22:32;;;;;;;;;4.00;3.50;;;;;22.28;55.81;100965.56;5058240;28;45633;-50
2022/09/05 02:25:07;;;;;;;;;2.75;2.75;;;;;22.29;56.03;100959.28;5060232;28;45411;-48
2022/09/05 02:27:43;;;;;;;;;5.75;3.50;;;;;22.32;56.82;100971.50;5046672;28;45557;-46
2022/09/05 02:30:13;;;;;;;;;5.25;5.00;;;;;22.34;56.79;100969.59;5073366;27;45473;-47
2022/09/05 02:32:43;;;;;;;;;7.25;5.00;;;;;22.34;57.91;100964.25;5054882;28;45438;-50
2022/09/05 02:35:08;;;;;;;;;8.00;5.50;;;;;22.35;58.11;100972.16;5052095;28;46605;-48
2022/09/05 02:37:33;;;;;;;;;3.33;3.00;;;;;22.35;57.95;100971.31;5046485;28;45447;-52
2022/09/05 02:40:27;;;;;;;;;8.67;5.00;;;;;22.36;57.81;100976.53;5054247;28;45456;-52
2022/09/05 02:43:01;;;;;;;;;9.75;4.50;;;;;22.39;57.57;100974.59;5057760;28;46035;-50
2022/09/05 02:45:57;;;;;;;;;5.75;5.75;;;;;22.40;57.89;100976.28;5042340;28;48235;-48
2022/09/05 02:48:59;;;;;;;;;6.75;6.75;;;;;22.41;58.06;100970.84;5058020;28;45446;-49
2022/09/05 02:51:52;;;;;;;;;3.50;3.25;;;;;22.42;57.24;100980.56;5050654;28;45317;-46
2022/09/05 02:54:22;;;;;;;;;5.00;4.25;;;;;22.41;57.63;100980.66;5058802;28;46031;-47
2022/09/05 02:57:03;;;;;;;;;6.75;4.50;;;;;22.42;57.34;100990.38;5055200;28;47965;-48
2022/09/05 02:59:40;;;;;;;;;6.50;4.75;;;;;22.41;56.80;101000.16;5055254;28;45243;-47
2022/09/05 03:02:44;;;;;;;;;7.50;3.00;;;;;22.42;57.00;101003.72;5059167;28;45425;-48
2022/09/05 03:05:19;;;;;;;;;7.00;5.00;;;;;22.43;57.58;101008.06;5054179;28;46007;-47
2022/09/05 03:07:59;;;;;;;;;6.25;4.50;;;;;22.40;57.44;100998.47;5050101;28;45945;-49
2022/09/05 03:10:49;;;;;;;;;5.25;4.75;;;;;22.41;57.64;101008.16;5069729;27;45371;-49
2022/09/05 03:13:23;;;;;;;;;5.00;4.75;;;;;22.41;57.43;101010.00;5060333;28;45422;-48
2022/09/05 03:16:07;;;;;;;;;6.00;4.00;;;;;22.39;57.27;101012.78;5049457;28;45427;-47
2022/09/05 03:19:09;;;;;;;;;6.25;3.50;;;;;22.39;57.70;101028.78;5054758;28;45705;-50
2022/09/05 03:21:58;;;;;;;;;5.75;4.50;;;;;22.36;57.94;101032.53;5054848;28;45476;-47
2022/09/05 03:25:00;;;;;;;;;5.25;4.00;;;;;22.35;56.96;101038.81;5049788;28;45368;-48
2022/09/05 03:27:31;;;;;;;;;4.00;3.50;;;;;22.35;56.58;101038.81;5052091;28;46136;-47
2022/09/05 03:29:59;;;;;;;;;5.25;4.00;;;;;22.36;56.18;101039.66;5046153;28;45462;-52
2022/09/05 03:32:36;;;;;;;;;3.50;3.50;;;;;22.36;56.46;101035.19;5058931;28;45368;-49
2022/09/05 03:35:20;;;;;;;;;4.00;4.00;;;;;22.40;55.81;101034.94;5074529;27;45392;-48
2022/09/05 03:38:15;;;;;;;;;4.25;4.25;;;;;22.40;56.17;101034.94;5077627;27;45488;-53
2022/09/05 03:41:03;;;;;;;;;3.00;3.00;;;;;22.43;56.37;101042.72;5047205;28;46306;-49
2022/09/05 03:43:48;;;;;;;;;4.25;4.00;;;;;22.43;56.32;101040.91;5057075;27;45427;-49
2022/09/05 03:46:36;;;;;;;;;4.00;3.00;;;;;22.44;56.54;101036.44;5059908;28;45630;-49
2022/09/05 03:49:06;;;;;;;;;4.25;4.00;;;;;22.45;56.70;101038.13;5074118;27;45473;-49
2022/09/05 03:51:57;;;;;;;;;5.50;5.00;;;;;22.46;56.28;101031.84;5071329;28;47743;-49
2022/09/05 03:54:47;;;;;;;;;7.00;5.00;;;;;22.46;56.06;101019.38;5073661;27;45809;-48
2022/09/05 03:57:47;;;;;;;;;8.25;5.00;;;;;22.47;56.67;101030.88;5077899;27;45475;-50
2022/09/05 04:00:22;;;;;;;;;4.75;4.00;;;;;22.48;56.55;101037.91;5057418;27;45517;-52
2022/09/05 04:03:18;;;;;;;;;4.25;3.50;;;;;22.48;56.04;101027.25;5063762;27;45483;-49
2022/09/05 04:06:08;;;;;;;;;5.00;4.00;;;;;22.49;56.15;101037.81;5052950;28;45769;-50
2022/09/05 04:08:51;;;;;;;;;4.50;4.50;;;;;22.50;55.80;101033.31;5040916;27;45266;-50
2022/09/05 04:11:29;;;;;;;;;4.00;4.00;;;;;22.49;54.80;101037.81;5074367;27;45245;-52
2022/09/05 04:14:08;;;;;;;;;6.00;4.00;;;;;22.50;55.54;101038.66;5075301;27;47016;-49
2022/09/05 04:16:53;;;;;;;;;4.25;4.25;;;;;22.50;54.92;101036.00;5065980;27;45668;-50
2022/09/05 04:19:33;;;;;;;;;6.00;6.00;;;;;22.50;55.46;101039.50;5052274;28;45521;-48
2022/09/05 04:22:17;;;;;;;;;3.00;3.00;;;;;22.51;54.89;101032.38;5074188;27;45475;-50
2022/09/05 04:25:00;;;;;;;;;4.00;4.00;;;;;22.52;54.70;101034.06;5072737;27;46283;-51
2022/09/05 04:27:35;;;;;;;;;9.25;5.00;;;;;22.52;54.51;101032.25;5066653;27;46716;-52
2022/09/05 04:30:20;;;;;;;;;6.25;6.25;;;;;22.52;54.87;101042.06;5069157;27;45446;-53
2022/09/05 04:32:54;;;;;;;;;5.75;5.75;;;;;22.54;55.03;101041.00;5075213;27;45306;-51
2022/09/05 04:35:36;;;;;;;;;8.00;5.75;;;;;22.54;55.17;101034.78;5080629;27;45439;-52
2022/09/05 04:38:04;;;;;;;;;4.25;4.25;;;;;22.55;54.44;101033.84;5067766;27;45854;-54
2022/09/05 04:40:36;;;;;;;;;7.00;6.00;;;;;22.55;54.48;101033.84;5065284;27;45473;-51
2022/09/05 04:43:05;;;;;;;;;7.00;6.00;;;;;22.56;54.70;101035.56;5071913;27;45398;-49
2022/09/05 04:45:35;;;;;;;;;7.50;5.25;;;;;22.55;54.51;101040.03;5054762;27;45527;-48
2022/09/05 04:48:03;;;;;;;;;6.25;4.75;;;;;22.56;54.46;101044.41;5048388;27;45241;-52
2022/09/05 04:50:29;;;;;;;;;5.75;4.75;;;;;22.56;54.25;101062.25;5049943;27;45380;-51
2022/09/05 04:53:07;;;;;;;;;5.00;4.00;;;;;22.52;54.22;101064.28;5053225;28;45470;-50
2022/09/05 04:55:50;;;;;;;;;6.25;6.00;;;;;22.54;54.07;101061.47;5056506;28;45427;-51
2022/09/05 04:58:36;;;;;;;;;6.00;4.75;;;;;22.52;54.09;101066.06;5058269;28;45340;-51
2022/09/05 05:01:12;;;;;;;;;4.75;3.50;;;;;22.53;53.51;101068.63;5054128;28;45484;-51
2022/09/05 05:03:38;;;;;;;;;4.00;4.00;;;;;22.53;53.48;101065.13;5072533;27;45592;-52
2022/09/05 05:06:06;;;;;;;;;4.75;4.00;;;;;22.53;53.40;101065.13;5073906;27;69688;-52
2022/09/05 05:08:45;;;;;;;;;5.50;5.50;;;;;22.53;53.74;101059.78;5074187;28;45671;-53
2022/09/05 05:11:31;;;;;;;;;7.00;5.50;;;;;22.54;53.68;101061.47;5056317;28;45411;-52
2022/09/05 05:14:10;;;;;;;;;5.75;4.00;;;;;22.53;54.22;101057.97;5074064;27;45570;-50
2022/09/05 05:16:46;;;;;;;;;5.50;5.50;;;;;22.54;53.94;101062.34;5041688;28;45395;-50
2022/09/05 05:19:29;;;;;;;;;7.00;5.00;;;;;22.53;53.82;101060.63;5059580;28;45459;-54
2022/09/05 05:21:56;;;;;;;;;4.25;4.25;;;;;22.51;54.11;101061.72;5057447;28;45519;-49
2022/09/05 05:24:41;;;;;;;;;8.50;5.50;;;;;22.52;54.40;101060.72;5075827;27;45484;-49
2022/09/05 05:27:15;;;;;;;;;4.75;4.00;;;;;22.51;54.01;101061.72;5069627;28;45548;-53
2022/09/05 05:30:03;;;;;;;;;5.75;5.75;;;;;22.50;54.49;101062.66;5064540;27;45511;-50
2022/09/05 05:32:32;;;;;;;;;6.50;5.00;;;;;22.52;54.55;101068.72;5049497;28;45566;-53
2022/09/05 05:35:02;;;;;;;;;8.75;8.75;;;;;22.52;54.24;101063.41;5052874;28;45607;-52
2022/09/05 05:37:34;;;;;;;;;8.00;7.00;;;;;22.51;54.47;101075.06;5050736;28;45550;-52
2022/09/05 05:40:07;;;;;;;;;7.00;5.00;;;;;22.51;54.34;101078.56;5047205;28;45270;-52
2022/09/05 05:42:34;;;;;;;;;6.00;6.00;;;;;22.51;54.82;101078.56;5055386;28;45213;-50
2022/09/05 05:45:00;;;;;;;;;8.75;7.00;;;;;22.52;54.22;101072.28;5053774;28;45542;-53
2022/09/05 05:47:40;;;;;;;;;9.75;8.00;;;;;22.54;54.65;101081.00;5049271;28;46882;-49
2022/09/05 05:50:32;;;;;;;;;9.50;8.75;;;;;22.56;54.55;101072.91;5052950;28;45272;-50
2022/09/05 05:53:04;;;;;;;;;8.25;6.00;;;;;22.57;54.77;101077.25;5044433;28;45488;-54
2022/09/05 05:55:41;;;;;;;;;8.00;6.00;;;;;22.58;54.27;101075.47;5048443;28;45336;-50
2022/09/05 05:58:27;;;;;;;;;7.00;6.50;;;;;22.60;54.60;101082.38;5053389;28;46478;-52
2022/09/05 06:01:07;;;;;;;;;6.25;6.25;;;;;22.61;54.02;101086.75;5069304;27;45397;-53
2022/09/05 06:04:10;;;;;;;;;7.75;7.75;;;;;22.65;53.94;101092.72;5053205;28;45577;-50
2022/09/05 06:06:52;;;;;;;;;8.75;7.00;;;;;22.68;54.13;101101.38;5055980;28;45634;-48
2022/09/05 06:09:30;;;;;;;;;7.50;6.25;;;;;22.72;54.57;101110.00;5052078;28;45759;-50
2022/09/05 06:12:27;;;;;;;;;10.25;8.00;;;;;22.75;54.52;101112.41;5055070;28;45370;-49
2022/09/05 06:15:15;;;;;;;;;10.50;7.00;;;;;22.79;54.06;101118.38;5051708;28;45545;-47
2022/09/05 06:18:09;;;;;;;;;10.00;9.25;;;;;22.79;54.11;101113.94;5058552;28;45332;-47
2022/09/05 06:21:00;;;;;;;;;9.25;8.75;;;;;22.80;53.89;101115.59;5048767;28;46145;-47
2022/09/05 06:23:41;;;;;;;;;9.00;8.00;;;;;22.83;54.39;101123.41;5039893;28;45313;-47
2022/09/05 06:26:25;;;;;;;;;12.00;9.75;;;;;22.85;54.08;101132.16;5051033;28;45418;-49
2022/09/05 06:29:27;;;;;;;;;8.00;8.00;;;;;22.86;53.58;101132.97;5057531;28;45650;-47
2022/09/05 06:32:17;;;;;;;;;8.75;8.00;;;;;22.89;53.49;101127.44;5058686;28;46220;-52
2022/09/05 06:34:55;;;;;;;;;7.25;6.00;;;;;22.90;52.94;101138.00;5059148;27;45408;-48
2022/09/05 06:38:02;;;;;;;;;6.25;5.00;;;;;22.88;52.89;101139.94;5070346;27;45431;-49
2022/09/05 06:40:37;;;;;;;;;8.00;4.75;;;;;22.87;52.97;101148.91;5040261;28;45484;-47
2022/09/05 06:43:09;;;;;;;;;12.00;8.25;;;;;22.89;53.41;101159.47;5093982;27;45728;-52
2022/09/05 06:46:20;;;;;;;;;14.25;12.00;;;;;22.89;52.83;101172.81;5055426;28;45358;-48
2022/09/05 06:48:51;;;;;;;;;7.00;7.00;;;;;22.92;52.54;101170.75;5057406;28;45486;-49
2022/09/05 06:51:23;;;;;;;;;6.00;6.00;;;;;22.95;52.87;101180.38;5079266;28;45440;-51
2022/09/05 06:54:21;;;;;;;;;14.25;10.25;;;;;22.99;52.63;101181.84;5074350;27;45546;-46
2022/09/05 06:57:31;;;;;;;;;8.00;6.50;;;;;23.03;52.75;101187.84;5028874;28;45356;-52
2022/09/05 07:00:17;;;;;;;;;7.50;7.00;;;;;23.06;52.73;101196.50;5052704;28;45718;-49
2022/09/05 07:02:46;;;;;;;;;9.75;8.50;;;;;23.10;52.77;101213.16;5077412;28;45520;-48
2022/09/05 07:05:25;;;;;;;;;13.75;9.25;;;;;23.13;52.79;101219.13;5078129;28;45548;-48
2022/09/05 07:07:54;;;;;;;;;15.25;9.00;;;;;23.18;52.85;101213.47;5081004;28;45249;-50
2022/09/05 07:10:39;;;;;;;;;11.00;10.00;;;;;23.25;52.44;101197.84;5050955;28;45448;-48
2022/09/05 07:13:07;;;;;;;;;11.25;9.00;;;;;23.31;52.01;101194.72;5053815;28;45864;-47
2022/09/05 07:15:42;;;;;;;;;9.25;7.00;;;;;23.36;51.89;101200.56;5077027;28;46318;-49
2022/09/05 07:18:21;;;;;;;;;13.00;9.00;;;;;23.46;52.22;101211.41;5069240;28;45395;-50
2022/09/05 07:20:56;;;;;;;;;17.00;11.00;;;;;23.52;52.12;101202.97;5043046;28;45474;-47
2022/09/05 07:23:47;;;;;;;;;8.25;7.00;;;;;23.58;51.53;101201.66;5075787;27;45495;-50
2022/09/05 07:26:14;;;;;;;;;8.00;8.00;;;;;23.62;51.22;101211.13;5051830;28;47470;-50
2022/09/05 07:28:46;;;;;;;;;10.50;10.00;;;;;23.67;51.30;101220.53;5070341;27;45504;-53
2022/09/05 07:31:17;;;;;;;;;6.25;6.25;;;;;23.72;50.99;101212.16;5079615;27;45422;-50
2022/09/05 07:33:44;;;;;;;;;11.50;9.00;;;;;23.77;51.38;101215.34;5061320;28;45521;-52
2022/09/05 07:36:20;;;;;;;;;8.00;6.50;;;;;23.82;50.66;101204.34;5051951;28;45323;-49
2022/09/05 07:38:49;;;;;;;;;7.50;6.25;;;;;23.88;50.46;101203.84;5071519;27;45384;-53
2022/09/05 07:41:29;;;;;;;;;11.50;11.50;;;;;23.93;51.11;101199.03;5073765;27;45695;-51
2022/09/05 07:44:02;;;;;;;;;15.75;11.25;;;;;23.96;51.13;101198.78;5073232;27;45262;-48
2022/09/05 07:46:31;;;;;;;;;27.00;16.50;;;;;23.98;51.09;101193.34;5056025;28;46387;-48
2022/09/05 07:48:56;;;;;;;;;38.00;17.50;;;;;24.00;50.53;101188.72;5054173;28;45871;-52
2022/09/05 07:51:27;;;;;;;;;10.00;9.00;;;;;24.01;50.44;101183.25;5072923;27;45662;-50
2022/09/05 07:53:56;;;;;;;;;10.75;9.50;;;;;24.06;50.40;101185.56;5058574;27;45606;-49
2022/09/05 07:56:47;;;;;;;;;13.50;11.75;;;;;24.10;50.29;101180.81;5075172;27;45570;-47
2022/09/05 07:59:13;;;;;;;;;12.75;8.00;;;;;24.13;49.79;101180.59;5083992;27;45542;-48
2022/09/05 08:01:43;;;;;;;;;8.75;6.50;;;;;24.16;49.97;101181.22;5064104;28;45378;-49
2022/09/05 08:04:10;;;;;;;;;10.75;7.75;;;;;24.19;49.69;101175.63;5074873;28;45312;-49
2022/09/05 08:06:36;;;;;;;;;10.75;8.00;;;;;24.24;49.75;101175.25;5035162;28;47301;-49
2022/09/05 08:09:11;;;;;;;;;12.25;11.00;;;;;24.31;50.04;101172.97;5077526;27;45365;-47
2022/09/05 08:11:37;;;;;;;;;9.75;7.00;;;;;24.38;49.40;101164.34;5070008;28;45449;-49
2022/09/05 08:14:11;;;;;;;;;11.50;7.00;;;;;24.46;49.31;101161.06;5070688;27;45479;-48
2022/09/05 08:16:38;;;;;;;;;9.75;5.50;;;;;24.54;49.22;101169.38;5050435;28;47132;-50
2022/09/05 08:19:23;;;;;;;;;4.25;4.25;;;;;24.63;48.96;101160.63;5067196;28;45630;-49
2022/09/05 08:21:50;;;;;;;;;4.50;4.00;;;;;24.75;48.79;101164.09;5067400;28;45525;-47
2022/09/05 08:24:25;;;;;;;;;8.50;7.25;;;;;24.83;48.79;101169.72;5033512;28;45477;-49
2022/09/05 08:27:01;;;;;;;;;8.25;7.00;;;;;24.92;48.49;101162.75;5060648;28;46217;-49
2022/09/05 08:29:38;;;;;;;;;9.00;7.00;;;;;25.00;48.39;101164.81;5048763;28;45942;-48
2022/09/05 08:32:12;;;;;;;;;6.00;5.00;;;;;25.08;47.88;101159.69;5057254;28;45532;-48
2022/09/05 08:35:10;;;;;;;;;8.00;5.25;;;;;25.15;47.98;101165.41;5073714;28;45553;-47
2022/09/05 08:37:35;;;;;;;;;7.50;5.75;;;;;25.20;47.33;101165.88;5071186;28;46301;-49
2022/09/05 08:40:18;;;;;;;;;6.00;5.00;;;;;25.28;47.34;101155.41;5070150;28;72118;-48
2022/09/05 08:42:47;;;;;;;;;6.50;5.00;;;;;25.37;47.36;101165.38;5076350;28;45315;-47
2022/09/05 08:45:20;;;;;;;;;6.25;6.25;;;;;25.46;47.29;101169.13;5057663;28;45480;-47
2022/09/05 08:47:55;;;;;;;;;8.75;4.00;;;;;25.55;46.12;101171.03;5057665;28;46411;-51
2022/09/05 08:50:47;;;;;;;;;17.75;15.75;;;;;25.63;46.35;101167.69;5043855;28;45250;-47
2022/09/05 08:53:22;;;;;;;;;13.00;11.50;;;;;25.71;46.36;101167.03;5057504;28;45463;-49
2022/09/05 08:55:59;;;;;;;;;8.00;5.50;;;;;25.76;45.99;101168.38;5071074;28;45631;-47
2022/09/05 08:58:42;;;;;;;;;9.25;7.00;;;;;25.82;45.70;101167.00;5055753;28;46072;-48
2022/09/05 09:01:10;;;;;;;;;6.25;5.00;;;;;25.87;45.43;101174.63;5074148;28;45253;-47
2022/09/05 09:03:50;;;;;;;;;4.25;4.25;;;;;25.92;45.14;101181.31;5076613;28;45186;-48
2022/09/05 09:06:53;;;;;;;;;7.00;4.75;;;;;25.98;45.36;101185.34;5076566;28;45280;-47
2022/09/05 09:09:30;;;;;;;;;6.00;5.00;;;;;26.07;44.59;101199.81;5055832;28;45414;-49
2022/09/05 09:12:07;;;;;;;;;8.25;7.75;;;;;26.14;44.55;101199.13;5074158;28;45399;-48
2022/09/05 09:14:53;;;;;;;;;8.75;6.25;;;;;26.21;43.79;101194.09;5058842;28;45467;-49
2022/09/05 09:17:42;;;;;;;;;6.00;6.00;;;;;26.23;44.27;101191.28;5049631;28;46305;-48
2022/09/05 09:20:36;;;;;;;;;5.50;4.25;;;;;26.30;43.41;101187.94;5079148;27;47056;-49
2022/09/05 09:23:19;;;;;;;;;5.25;4.75;;;;;26.36;43.16;101194.59;5076732;28;45498;-48
2022/09/05 09:26:14;;;;;;;;;4.75;4.00;;;;;26.42;43.52;101194.06;5066685;27;45247;-48
2022/09/05 09:28:42;;;;;;;;;6.00;4.00;;;;;26.47;43.25;101194.53;5070262;28;45251;-48
2022/09/05 09:31:15;;;;;;;;;6.75;4.25;;;;;26.53;43.04;101195.81;5057012;28;45386;-51
2022/09/05 09:34:02;;;;;;;;;10.75;4.50;;;;;26.56;42.35;101195.56;5058439;28;45292;-46
2022/09/05 09:37:07;;;;;;;;;5.50;5.00;;;;;26.61;42.33;101198.69;5059447;28;45401;-47
2022/09/05 09:39:54;;;;;;;;;6.50;6.25;;;;;26.68;42.01;101191.84;5049588;28;45646;-47
2022/09/05 09:42:40;;;;;;;;;8.00;6.50;;;;;26.72;41.76;101189.72;5053512;28;45433;-46
2022/09/05 09:45:27;;;;;;;;;17.50;14.50;;;;;26.77;42.02;101182.09;5053343;28;45914;-46
2022/09/05 09:48:18;;;;;;;;;8.25;6.25;;;;;26.80;42.11;101171.06;5056341;28;45406;-47
2022/09/05 09:51:06;;;;;;;;;2.75;2.75;;;;;26.84;42.16;101174.34;5054334;28;45344;-49
2022/09/05 09:54:16;;;;;;;;;4.25;4.00;;;;;26.88;41.73;101173.94;5053142;28;46358;-47
2022/09/05 09:57:19;;;;;;;;;3.25;2.50;;;;;26.90;40.81;101173.81;5037889;28;46083;-49
2022/09/05 10:00:06;;;;;;;;;6.75;4.00;;;;;26.93;41.04;101168.13;5053286;28;45507;-48
2022/09/05 10:02:43;;;;;;;;;6.00;4.50;;;;;26.96;40.90;101165.19;5058147;28;45578;-48
2022/09/05 10:05:50;;;;;;;;;6.50;6.25;;;;;27.02;41.39;101163.78;5050980;28;45517;-46
2022/09/05 10:08:40;;;;;;;;;1.25;0.00;;;;;27.05;41.02;101142.84;5042260;28;45353;-51
2022/09/05 10:11:05;;;;;;;;;3.00;3.00;;;;;27.07;40.26;101140.03;5054929;28;45370;-51
2022/09/05 10:13:50;;;;;;;;;6.67;5.00;;;;;27.08;40.84;101133.69;5059421;28;45319;-51
2022/09/05 10:16:42;;;;;;;;;4.50;4.25;;;;;27.07;40.23;101127.47;5052304;28;46695;-49
2022/09/05 10:19:29;;;;;;;;;2.25;2.25;;;;;27.06;39.72;101124.94;5038726;28;45734;-48
2022/09/05 10:22:33;;;;;;;;;2.00;1.50;;;;;27.05;39.24;101126.75;5061554;28;45257;-50
2022/09/05 10:25:46;;;;;;;;;1.25;1.00;;;;;27.06;38.71;101120.41;5047966;28;45421;-51
2022/09/05 10:28:54;;;;;;;;;4.00;1.00;;;;;27.09;39.27;101125.50;5049741;28;46047;-49
2022/09/05 10:31:21;;;;;;;;;3.25;1.50;;;;;27.13;38.73;101117.13;5048949;28;45618;-49
2022/09/05 10:34:18;;;;;;;;;3.00;1.75;;;;;27.16;37.98;101123.09;5082015;27;45714;-50
2022/09/05 10:36:53;;;;;;;;;2.50;1.00;;;;;27.17;38.02;101116.72;5070826;28;45471;-49
2022/09/05 10:39:19;;;;;;;;;3.00;3.00;;;;;27.20;37.92;101129.03;5074777;28;46221;-49
2022/09/05 10:41:49;;;;;;;;;2.25;2.00;;;;;27.22;38.69;101119.84;5078716;28;45383;-49
2022/09/05 10:44:23;;;;;;;;;2.50;2.50;;;;;27.23;37.73;101124.25;5076622;28;45472;-51
2022/09/05 10:47:14;;;;;;;;;3.00;2.00;;;;;27.24;37.54;101106.28;5060463;28;45267;-52
2022/09/05 10:49:43;;;;;;;;;2.75;1.25;;;;;27.24;36.71;101109.78;5056343;28;46309;-51
2022/09/05 10:52:14;;;;;;;;;2.50;2.00;;;;;27.25;37.12;101106.13;5081112;28;45579;-49
2022/09/05 10:55:07;;;;;;;;;2.00;2.00;;;;;27.28;37.03;101105.84;5076521;28;45443;-52
2022/09/05 10:57:39;;;;;;;;;2.25;2.00;;;;;27.33;36.54;101108.13;5057127;28;45553;-47
2022/09/05 11:00:25;;;;;;;;;3.00;1.75;;;;;27.34;36.08;101109.84;5070819;28;46352;-51
2022/09/05 11:02:56;;;;;;;;;2.75;1.50;;;;;27.37;36.81;101103.31;5079956;28;45237;-47
2022/09/05 11:05:24;;;;;;;;;3.00;3.00;;;;;27.40;36.26;101094.97;5077565;27;45443;-51
2022/09/05 11:08:06;;;;;;;;;3.00;3.00;;;;;27.43;37.05;101090.16;5064346;27;45284;-50
2022/09/05 11:10:47;;;;;;;;;1.50;1.50;;;;;27.43;36.39;101092.84;5057251;28;46213;-51
2022/09/05 11:13:40;;;;;;;;;2.75;2.75;;;;;27.44;36.77;101097.22;5077186;28;46040;-50
2022/09/05 11:16:26;;;;;;;;;2.00;2.00;;;;;27.46;36.92;101095.28;5066123;28;45326;-50
2022/09/05 11:18:56;;;;;;;;;2.00;2.00;;;;;27.43;35.07;101092.00;5051631;28;45495;-50
2022/09/05 11:21:30;;;;;;;;;2.00;2.00;;;;;27.49;35.73;101096.81;5072688;28;47230;-47
2022/09/05 11:24:06;;;;;;;;;3.50;2.00;;;;;27.51;36.38;101092.13;5076264;27;45289;-50
2022/09/05 11:26:44;;;;;;;;;3.50;3.50;;;;;27.55;36.34;101093.56;5072223;27;45486;-52
2022/09/05 11:29:14;;;;;;;;;3.25;3.25;;;;;27.59;36.10;101091.44;5054671;28;45462;-50
2022/09/05 11:31:45;;;;;;;;;3.75;2.75;;;;;27.63;35.13;101087.47;5077565;27;45363;-48
2022/09/05 11:34:38;;;;;;;;;3.75;3.00;;;;;27.67;36.28;101088.84;5079852;27;45337;-53
2022/09/05 11:37:14;;;;;;;;;5.50;3.00;;;;;27.72;35.75;101083.06;5066487;27;45518;-53
2022/09/05 11:40:22;;;;;;;;;3.25;3.00;;;;;27.74;35.62;101084.59;5039949;27;45219;-56
2022/09/05 11:43:15;;;;;;;;;3.00;2.00;;;;;27.77;35.94;101080.78;5070329;27;45582;-53
2022/09/05 11:45:48;;;;;;;;;2.75;2.50;;;;;27.81;35.99;101076.78;5077308;27;45908;-57
2022/09/05 11:48:25;;;;;;;;;4.75;4.75;;;;;27.83;35.86;101072.13;5050730;28;45331;-62
2022/09/05 11:51:15;;;;;;;;;3.25;1.00;;;;;27.88;35.77;101074.38;5055488;28;45401;-56
2022/09/05 11:54:18;;;;;;;;;4.00;2.75;;;;;27.89;35.38;101071.53;5059595;28;46333;-54
2022/09/05 11:57:02;;;;;;;;;6.00;5.75;;;;;27.90;35.29;101065.16;5064193;27;45411;-55
2022/09/05 12:00:03;;;;;;;;;3.00;3.00;;;;;27.90;35.31;101062.47;5075406;27;45347;-54
2022/09/05 12:02:54;;;;;;;;;2.00;2.00;;;;;27.89;34.91;101058.09;5049395;28;45269;-51
2022/09/05 12:05:32;;;;;;;;;3.00;3.00;;;;;27.89;35.54;101054.53;5055065;28;45786;-52
2022/09/05 12:08:08;;;;;;;;;7.00;3.00;;;;;27.89;34.68;101046.47;5074137;27;45226;-53
2022/09/05 12:10:57;;;;;;;;;3.50;2.25;;;;;27.88;34.91;101042.09;5050319;27;45448;-52
2022/09/05 12:13:44;;;;;;;;;5.00;3.25;;;;;27.87;34.98;101038.56;5055078;28;45461;-52
2022/09/05 12:16:41;;;;;;;;;3.50;3.00;;;;;27.87;34.54;101035.88;5074444;27;45300;-50
2022/09/05 12:19:31;;;;;;;;;2.75;1.00;;;;;27.86;34.72;101036.88;5053355;27;45706;-49
2022/09/05 12:22:30;;;;;;;;;1.00;1.00;;;;;27.86;35.02;101028.78;5044897;27;45308;-51
2022/09/05 12:25:05;;;;;;;;;9.75;7.50;;;;;27.88;35.33;101023.28;5048612;27;45348;-54
2022/09/05 12:27:34;;;;;;;;;5.25;4.00;;;;;27.90;34.70;101026.66;5073622;27;45392;-53
2022/09/05 12:30:04;;;;;;;;;7.00;6.25;;;;;27.91;35.01;101014.94;5089694;27;45461;-54